sensor_id;sensor_type;location;lat;lon;timestamp;pressure;altitude;pressure_sealevel;temperature;humidity
35435;BME280;21556;55.782;37.528;2023-02-04T00:01:00;99184.00;;;1.95;100.00
35435;BME280;21556;55.782;37.528;2023-02-04T00:03:26;99185.84;;;1.78;100.00
35435;BME280;21556;55.782;37.528;2023-02-04T00:05:52;99190.69;;;1.89;100.00
35435;BME280;21556;55.782;37.528;2023-02-04T00:08:17;99183.16;;;1.75;100.00
35435;BME280;21556;55.782;37.528;2023-02-04T00:10:44;99193.38;;;1.72;100.00
35435;BME280;21556;55.782;37.528;2023-02-04T00:13:12;99192.88;;;1.80;100.00
35435;BME280;21556;55.782;37.528;2023-02-04T00:15:37;99198.47;;;1.70;100.00
35435;BME280;21556;55.782;37.528;2023-02-04T00:18:03;99188.66;;;1.82;100.00
35435;BME280;21556;55.782;37.528;2023-02-04T00:20:32;99194.59;;;1.60;100.00
35435;BME280;21556;55.782;37.528;2023-02-04T00:22:58;99196.09;;;1.75;100.00
35435;BME280;21556;55.782;37.528;2023-02-04T00:25:24;99192.16;;;1.63;100.00
35435;BME280;21556;55.782;37.528;2023-02-04T00:27:49;99199.63;;;1.77;100.00
35435;BME280;21556;55.782;37.528;2023-02-04T00:30:16;99194.06;;;1.88;100.00
35435;BME280;21556;55.782;37.528;2023-02-04T00:32:42;99201.84;;;1.88;100.00
35435;BME280;21556;55.782;37.528;2023-02-04T00:35:07;99206.44;;;1.96;100.00
35435;BME280;21556;55.782;37.528;2023-02-04T00:37:33;99205.94;;;1.83;100.00
35435;BME280;21556;55.782;37.528;2023-02-04T00:39:59;99203.06;;;1.97;100.00
35435;BME280;21556;55.782;37.528;2023-02-04T00:42:25;99213.22;;;1.73;100.00
35435;BME280;21556;55.782;37.528;2023-02-04T00:44:52;99214.66;;;1.85;100.00
35435;BME280;21556;55.782;37.528;2023-02-04T00:47:19;99206.97;;;1.87;100.00
35435;BME280;21556;55.782;37.528;2023-02-04T00:49:45;99213.97;;;1.70;100.00
35435;BME280;21556;55.782;37.528;2023-02-04T00:52:11;99218.13;;;1.86;100.00
35435;BME280;21556;55.782;37.528;2023-02-04T00:54:36;99218.81;;;1.62;100.00
35435;BME280;21556;55.782;37.528;2023-02-04T00:57:02;99224.38;;;1.52;100.00
35435;BME280;21556;55.782;37.528;2023-02-04T00:59:28;99229.09;;;1.61;100.00
35435;BME280;21556;55.782;37.528;2023-02-04T01:01:54;99228.41;;;1.65;100.00
35435;BME280;21556;55.782;37.528;2023-02-04T01:04:20;99215.13;;;1.77;100.00
35435;BME280;21556;55.782;37.528;2023-02-04T01:06:46;99223.78;;;1.77;100.00
35435;BME280;21556;55.782;37.528;2023-02-04T01:09:12;99218.31;;;1.90;100.00
35435;BME280;21556;55.782;37.528;2023-02-04T01:11:37;99228.00;;;1.75;100.00
35435;BME280;21556;55.782;37.528;2023-02-04T01:14:03;99225.19;;;1.71;100.00
35435;BME280;21556;55.782;37.528;2023-02-04T01:16:29;99231.59;;;1.59;100.00
35435;BME280;21556;55.782;37.528;2023-02-04T01:18:55;99230.00;;;1.42;100.00
35435;BME280;21556;55.782;37.528;2023-02-04T01:21:23;99234.63;;;1.49;100.00
35435;BME280;21556;55.782;37.528;2023-02-04T01:23:50;99240.81;;;1.53;100.00
35435;BME280;21556;55.782;37.528;2023-02-04T01:26:17;99226.44;;;1.59;100.00
35435;BME280;21556;55.782;37.528;2023-02-04T01:28:43;99225.41;;;1.56;100.00
35435;BME280;21556;55.782;37.528;2023-02-04T01:31:09;99233.25;;;1.57;100.00
35435;BME280;21556;55.782;37.528;2023-02-04T01:33:35;99230.66;;;1.57;100.00
35435;BME280;21556;55.782;37.528;2023-02-04T01:36:01;99230.66;;;1.57;100.00
35435;BME280;21556;55.782;37.528;2023-02-04T01:38:28;99234.59;;;1.30;100.00
35435;BME280;21556;55.782;37.528;2023-02-04T01:40:54;99243.84;;;1.44;100.00
35435;BME280;21556;55.782;37.528;2023-02-04T01:43:21;99245.69;;;1.47;100.00
35435;BME280;21556;55.782;37.528;2023-02-04T01:45:48;99254.56;;;1.34;100.00
35435;BME280;21556;55.782;37.528;2023-02-04T01:48:16;99253.59;;;1.69;100.00
35435;BME280;21556;55.782;37.528;2023-02-04T01:50:49;99255.00;;;1.62;100.00
35435;BME280;21556;55.782;37.528;2023-02-04T01:53:19;99264.41;;;1.23;100.00
35435;BME280;21556;55.782;37.528;2023-02-04T01:55:48;99258.28;;;1.39;100.00
35435;BME280;21556;55.782;37.528;2023-02-04T01:58:14;99268.28;;;1.13;100.00
35435;BME280;21556;55.782;37.528;2023-02-04T02:00:41;99267.78;;;1.40;100.00
35435;BME280;21556;55.782;37.528;2023-02-04T02:03:07;99265.84;;;1.54;100.00
35435;BME280;21556;55.782;37.528;2023-02-04T02:05:39;99272.28;;;1.44;100.00
35435;BME280;21556;55.782;37.528;2023-02-04T02:08:07;99274.56;;;1.38;100.00
35435;BME280;21556;55.782;37.528;2023-02-04T02:10:36;99278.81;;;1.36;100.00
35435;BME280;21556;55.782;37.528;2023-02-04T02:13:07;99277.22;;;1.57;100.00
35435;BME280;21556;55.782;37.528;2023-02-04T02:15:38;99275.16;;;1.50;100.00
35435;BME280;21556;55.782;37.528;2023-02-04T02:18:05;99279.78;;;1.57;100.00
35435;BME280;21556;55.782;37.528;2023-02-04T02:20:31;99284.75;;;1.53;100.00
35435;BME280;21556;55.782;37.528;2023-02-04T02:23:02;99286.53;;;1.54;100.00
35435;BME280;21556;55.782;37.528;2023-02-04T02:25:30;99292.13;;;1.45;100.00
35435;BME280;21556;55.782;37.528;2023-02-04T02:27:57;99287.06;;;1.47;100.00
35435;BME280;21556;55.782;37.528;2023-02-04T02:30:23;99295.56;;;1.44;100.00
35435;BME280;21556;55.782;37.528;2023-02-04T02:32:50;99294.13;;;1.31;100.00
35435;BME280;21556;55.782;37.528;2023-02-04T02:35:17;99301.06;;;1.52;100.00
35435;BME280;21556;55.782;37.528;2023-02-04T02:37:43;99298.00;;;1.41;100.00
35435;BME280;21556;55.782;37.528;2023-02-04T02:40:09;99298.75;;;1.38;100.00
35435;BME280;21556;55.782;37.528;2023-02-04T02:42:36;99301.41;;;1.59;100.00
35435;BME280;21556;55.782;37.528;2023-02-04T02:45:10;99301.69;;;1.46;100.00
35435;BME280;21556;55.782;37.528;2023-02-04T02:47:38;99304.53;;;1.52;100.00
35435;BME280;21556;55.782;37.528;2023-02-04T02:50:04;99304.28;;;1.65;100.00
35435;BME280;21556;55.782;37.528;2023-02-04T02:52:30;99309.53;;;1.30;100.00
35435;BME280;21556;55.782;37.528;2023-02-04T02:54:56;99304.97;;;1.24;100.00
35435;BME280;21556;55.782;37.528;2023-02-04T02:57:22;99304.66;;;1.36;100.00
35435;BME280;21556;55.782;37.528;2023-02-04T02:59:49;99312.78;;;1.26;100.00
35435;BME280;21556;55.782;37.528;2023-02-04T03:02:18;99314.63;;;1.28;100.00
35435;BME280;21556;55.782;37.528;2023-02-04T03:04:50;99312.63;;;1.40;100.00
35435;BME280;21556;55.782;37.528;2023-02-04T03:07:21;99314.75;;;1.49;100.00
35435;BME280;21556;55.782;37.528;2023-02-04T03:09:48;99319.69;;;1.44;100.00
35435;BME280;21556;55.782;37.528;2023-02-04T03:12:14;99308.78;;;1.50;100.00
35435;BME280;21556;55.782;37.528;2023-02-04T03:14:40;99310.22;;;1.45;100.00
35435;BME280;21556;55.782;37.528;2023-02-04T03:17:08;99314.50;;;1.62;100.00
35435;BME280;21556;55.782;37.528;2023-02-04T03:19:35;99318.66;;;1.41;100.00
35435;BME280;21556;55.782;37.528;2023-02-04T03:22:03;99325.41;;;1.19;100.00
35435;BME280;21556;55.782;37.528;2023-02-04T03:24:30;99326.09;;;1.15;100.00
35435;BME280;21556;55.782;37.528;2023-02-04T03:26:56;99316.94;;;1.22;100.00
35435;BME280;21556;55.782;37.528;2023-02-04T03:29:22;99331.41;;;1.18;100.00
35435;BME280;21556;55.782;37.528;2023-02-04T03:31:48;99333.31;;;1.23;100.00
35435;BME280;21556;55.782;37.528;2023-02-04T03:34:14;99330.47;;;1.16;100.00
35435;BME280;21556;55.782;37.528;2023-02-04T03:36:40;99331.78;;;1.08;100.00
35435;BME280;21556;55.782;37.528;2023-02-04T03:39:05;99337.28;;;1.34;100.00
35435;BME280;21556;55.782;37.528;2023-02-04T03:41:31;99333.81;;;1.51;100.00
35435;BME280;21556;55.782;37.528;2023-02-04T03:43:57;99335.38;;;1.30;100.00
35435;BME280;21556;55.782;37.528;2023-02-04T03:46:24;99347.94;;;1.22;100.00
35435;BME280;21556;55.782;37.528;2023-02-04T03:48:50;99348.81;;;1.23;100.00
35435;BME280;21556;55.782;37.528;2023-02-04T03:51:16;99348.75;;;1.21;100.00
35435;BME280;21556;55.782;37.528;2023-02-04T03:53:42;99348.50;;;1.34;100.00
35435;BME280;21556;55.782;37.528;2023-02-04T03:56:07;99352.69;;;1.31;100.00
35435;BME280;21556;55.782;37.528;2023-02-04T03:58:35;99350.50;;;1.40;100.00
35435;BME280;21556;55.782;37.528;2023-02-04T04:01:01;99355.53;;;1.37;100.00
35435;BME280;21556;55.782;37.528;2023-02-04T04:03:26;99366.53;;;1.33;100.00
35435;BME280;21556;55.782;37.528;2023-02-04T04:05:52;99363.59;;;1.43;100.00
35435;BME280;21556;55.782;37.528;2023-02-04T04:08:18;99357.91;;;1.32;100.00
35435;BME280;21556;55.782;37.528;2023-02-04T04:10:44;99365.34;;;1.26;100.00
35435;BME280;21556;55.782;37.528;2023-02-04T04:13:09;99370.38;;;1.23;100.00
35435;BME280;21556;55.782;37.528;2023-02-04T04:15:35;99365.72;;;1.34;100.00
35435;BME280;21556;55.782;37.528;2023-02-04T04:18:01;99369.94;;;1.32;100.00
35435;BME280;21556;55.782;37.528;2023-02-04T04:20:29;99378.44;;;1.29;100.00
35435;BME280;21556;55.782;37.528;2023-02-04T04:22:55;99370.53;;;1.44;100.00
35435;BME280;21556;55.782;37.528;2023-02-04T04:25:21;99380.53;;;1.56;100.00
35435;BME280;21556;55.782;37.528;2023-02-04T04:27:47;99376.81;;;1.49;100.00
35435;BME280;21556;55.782;37.528;2023-02-04T04:30:13;99375.38;;;1.56;100.00
35435;BME280;21556;55.782;37.528;2023-02-04T04:32:39;99385.31;;;1.47;100.00
35435;BME280;21556;55.782;37.528;2023-02-04T04:35:05;99386.47;;;1.53;100.00
35435;BME280;21556;55.782;37.528;2023-02-04T04:37:31;99386.75;;;1.59;100.00
35435;BME280;21556;55.782;37.528;2023-02-04T04:39:57;99385.06;;;1.60;100.00
35435;BME280;21556;55.782;37.528;2023-02-04T04:42:24;99389.25;;;1.76;100.00
35435;BME280;21556;55.782;37.528;2023-02-04T04:44:50;99389.59;;;1.46;100.00
35435;BME280;21556;55.782;37.528;2023-02-04T04:47:16;99389.34;;;1.41;100.00
35435;BME280;21556;55.782;37.528;2023-02-04T04:49:42;99392.75;;;1.58;100.00
35435;BME280;21556;55.782;37.528;2023-02-04T04:52:07;99393.88;;;1.83;100.00
35435;BME280;21556;55.782;37.528;2023-02-04T04:54:33;99391.28;;;1.63;100.00
35435;BME280;21556;55.782;37.528;2023-02-04T04:56:59;99404.88;;;1.24;100.00
35435;BME280;21556;55.782;37.528;2023-02-04T04:59:25;99411.56;;;1.38;100.00
35435;BME280;21556;55.782;37.528;2023-02-04T05:01:53;99413.22;;;1.36;100.00
35435;BME280;21556;55.782;37.528;2023-02-04T05:04:19;99405.81;;;1.43;100.00
35435;BME280;21556;55.782;37.528;2023-02-04T05:06:45;99413.06;;;1.51;100.00
35435;BME280;21556;55.782;37.528;2023-02-04T05:09:11;99417.25;;;1.49;100.00
35435;BME280;21556;55.782;37.528;2023-02-04T05:11:37;99419.94;;;1.50;100.00
35435;BME280;21556;55.782;37.528;2023-02-04T05:14:03;99420.16;;;1.37;100.00
35435;BME280;21556;55.782;37.528;2023-02-04T05:16:29;99420.25;;;1.38;100.00
35435;BME280;21556;55.782;37.528;2023-02-04T05:18:55;99423.88;;;1.42;100.00
35435;BME280;21556;55.782;37.528;2023-02-04T05:21:21;99432.66;;;1.46;100.00
35435;BME280;21556;55.782;37.528;2023-02-04T05:23:47;99437.59;;;1.41;100.00
35435;BME280;21556;55.782;37.528;2023-02-04T05:26:13;99439.22;;;1.57;100.00
35435;BME280;21556;55.782;37.528;2023-02-04T05:28:39;99439.59;;;1.47;100.00
35435;BME280;21556;55.782;37.528;2023-02-04T05:31:05;99440.31;;;1.44;100.00
35435;BME280;21556;55.782;37.528;2023-02-04T05:33:30;99444.09;;;1.51;100.00
35435;BME280;21556;55.782;37.528;2023-02-04T05:35:56;99449.84;;;1.63;100.00
35435;BME280;21556;55.782;37.528;2023-02-04T05:38:22;99453.56;;;1.68;100.00
35435;BME280;21556;55.782;37.528;2023-02-04T05:40:48;99452.72;;;1.51;100.00
35435;BME280;21556;55.782;37.528;2023-02-04T05:43:13;99450.34;;;1.56;100.00
35435;BME280;21556;55.782;37.528;2023-02-04T05:45:42;99453.09;;;1.59;100.00
35435;BME280;21556;55.782;37.528;2023-02-04T05:48:08;99458.72;;;1.50;100.00
35435;BME280;21556;55.782;37.528;2023-02-04T05:50:41;99456.66;;;1.79;100.00
35435;BME280;21556;55.782;37.528;2023-02-04T05:53:13;99459.97;;;1.58;100.00
35435;BME280;21556;55.782;37.528;2023-02-04T05:55:44;99462.88;;;1.64;100.00
35435;BME280;21556;55.782;37.528;2023-02-04T05:58:10;99473.56;;;1.72;100.00
35435;BME280;21556;55.782;37.528;2023-02-04T06:00:39;99465.66;;;1.69;100.00
35435;BME280;21556;55.782;37.528;2023-02-04T06:03:10;99465.66;;;1.69;100.00
35435;BME280;21556;55.782;37.528;2023-02-04T06:05:39;99482.38;;;1.76;100.00
35435;BME280;21556;55.782;37.528;2023-02-04T06:08:06;99478.94;;;1.59;100.00
35435;BME280;21556;55.782;37.528;2023-02-04T06:10:32;99481.53;;;1.59;100.00
35435;BME280;21556;55.782;37.528;2023-02-04T06:12:59;99493.81;;;1.63;100.00
35435;BME280;21556;55.782;37.528;2023-02-04T06:15:33;99491.44;;;1.50;100.00
35435;BME280;21556;55.782;37.528;2023-02-04T06:18:00;99493.75;;;1.61;100.00
35435;BME280;21556;55.782;37.528;2023-02-04T06:20:30;99503.34;;;1.64;100.00
35435;BME280;21556;55.782;37.528;2023-02-04T06:22:56;99513.03;;;1.68;100.00
35435;BME280;21556;55.782;37.528;2023-02-04T06:25:22;99513.41;;;1.76;100.00
35435;BME280;21556;55.782;37.528;2023-02-04T06:28:03;99508.97;;;1.73;100.00
35435;BME280;21556;55.782;37.528;2023-02-04T06:30:32;99511.84;;;1.61;100.00
35435;BME280;21556;55.782;37.528;2023-02-04T06:33:24;99513.25;;;1.73;100.00
35435;BME280;21556;55.782;37.528;2023-02-04T06:35:51;99513.41;;;1.76;100.00
35435;BME280;21556;55.782;37.528;2023-02-04T06:38:29;99511.63;;;1.75;100.00
35435;BME280;21556;55.782;37.528;2023-02-04T06:41:12;99514.06;;;1.72;100.00
35435;BME280;21556;55.782;37.528;2023-02-04T06:43:39;99519.50;;;2.13;100.00
35435;BME280;21556;55.782;37.528;2023-02-04T06:46:13;99522.72;;;2.08;100.00
35435;BME280;21556;55.782;37.528;2023-02-04T06:48:48;99527.88;;;2.08;100.00
35435;BME280;21556;55.782;37.528;2023-02-04T06:51:17;99536.47;;;1.89;100.00
35435;BME280;21556;55.782;37.528;2023-02-04T06:53:48;99529.22;;;1.82;100.00
35435;BME280;21556;55.782;37.528;2023-02-04T06:56:25;99529.44;;;2.04;100.00
35435;BME280;21556;55.782;37.528;2023-02-04T06:58:53;99529.66;;;2.09;100.00
35435;BME280;21556;55.782;37.528;2023-02-04T07:01:20;99538.00;;;2.03;100.00
35435;BME280;21556;55.782;37.528;2023-02-04T07:03:46;99538.97;;;2.05;100.00
35435;BME280;21556;55.782;37.528;2023-02-04T07:06:13;99543.09;;;2.02;100.00
35435;BME280;21556;55.782;37.528;2023-02-04T07:09:05;99544.66;;;1.98;100.00
35435;BME280;21556;55.782;37.528;2023-02-04T07:11:34;99552.72;;;2.22;100.00
35435;BME280;21556;55.782;37.528;2023-02-04T07:14:09;99553.81;;;2.09;100.00
35435;BME280;21556;55.782;37.528;2023-02-04T07:16:49;99552.28;;;1.95;100.00
35435;BME280;21556;55.782;37.528;2023-02-04T07:19:23;99554.78;;;1.93;100.00
35435;BME280;21556;55.782;37.528;2023-02-04T07:21:50;99557.59;;;1.98;100.00
35435;BME280;21556;55.782;37.528;2023-02-04T07:24:24;99559.00;;;1.91;100.00
35435;BME280;21556;55.782;37.528;2023-02-04T07:26:50;99570.38;;;1.95;100.00
35435;BME280;21556;55.782;37.528;2023-02-04T07:29:26;99566.59;;;1.88;100.00
35435;BME280;21556;55.782;37.528;2023-02-04T07:31:53;99573.84;;;1.96;100.00
35435;BME280;21556;55.782;37.528;2023-02-04T07:34:19;99570.38;;;1.95;100.00
35435;BME280;21556;55.782;37.528;2023-02-04T07:36:46;99568.25;;;2.22;100.00
35435;BME280;21556;55.782;37.528;2023-02-04T07:39:18;99580.66;;;2.11;100.00
35435;BME280;21556;55.782;37.528;2023-02-04T07:41:56;99580.81;;;1.97;100.00
35435;BME280;21556;55.782;37.528;2023-02-04T07:44:31;99581.75;;;1.81;100.00
35435;BME280;21556;55.782;37.528;2023-02-04T07:47:00;99581.50;;;1.92;100.00
35435;BME280;21556;55.782;37.528;2023-02-04T07:49:31;99587.19;;;1.85;100.00
35435;BME280;21556;55.782;37.528;2023-02-04T07:51:57;99582.38;;;2.11;100.00
35435;BME280;21556;55.782;37.528;2023-02-04T07:54:24;99584.97;;;2.11;100.00
35435;BME280;21556;55.782;37.528;2023-02-04T07:56:56;99587.75;;;1.98;100.00
35435;BME280;21556;55.782;37.528;2023-02-04T07:59:25;99591.84;;;1.92;100.00
35435;BME280;21556;55.782;37.528;2023-02-04T08:01:54;99589.00;;;2.24;100.00
35435;BME280;21556;55.782;37.528;2023-02-04T08:04:20;99586.88;;;2.15;100.00
35435;BME280;21556;55.782;37.528;2023-02-04T08:06:48;99587.69;;;2.14;100.00
35435;BME280;21556;55.782;37.528;2023-02-04T08:09:14;99600.22;;;1.88;100.00
35435;BME280;21556;55.782;37.528;2023-02-04T08:11:40;99598.13;;;1.98;100.00
35435;BME280;21556;55.782;37.528;2023-02-04T08:14:06;99594.47;;;1.76;100.00
35435;BME280;21556;55.782;37.528;2023-02-04T08:16:56;99601.72;;;1.83;100.00
35435;BME280;21556;55.782;37.528;2023-02-04T08:19:27;99595.31;;;2.11;100.00
35435;BME280;21556;55.782;37.528;2023-02-04T08:21:57;99604.47;;;1.86;100.00
35435;BME280;21556;55.782;37.528;2023-02-04T08:24:23;99599.59;;;2.10;100.00
35435;BME280;21556;55.782;37.528;2023-02-04T08:26:52;99598.19;;;2.35;100.00
35435;BME280;21556;55.782;37.528;2023-02-04T08:29:19;99604.47;;;2.04;100.00
35435;BME280;21556;55.782;37.528;2023-02-04T08:31:45;99609.69;;;1.88;100.00
35435;BME280;21556;55.782;37.528;2023-02-04T08:34:15;99606.38;;;1.73;100.00
35435;BME280;21556;55.782;37.528;2023-02-04T08:36:41;99609.78;;;1.72;100.00
35435;BME280;21556;55.782;37.528;2023-02-04T08:39:10;99612.50;;;1.75;100.00
35435;BME280;21556;55.782;37.528;2023-02-04T08:41:37;99612.69;;;1.61;100.00
35435;BME280;21556;55.782;37.528;2023-02-04T08:44:03;99613.75;;;1.65;100.00
35435;BME280;21556;55.782;37.528;2023-02-04T08:46:30;99617.38;;;1.52;100.00
35435;BME280;21556;55.782;37.528;2023-02-04T08:48:56;99623.59;;;1.72;100.00
35435;BME280;21556;55.782;37.528;2023-02-04T08:51:25;99622.44;;;1.67;100.00
35435;BME280;21556;55.782;37.528;2023-02-04T08:53:55;99620.28;;;1.75;100.00
35435;BME280;21556;55.782;37.528;2023-02-04T08:56:21;99628.25;;;1.79;100.00
35435;BME280;21556;55.782;37.528;2023-02-04T08:58:50;99621.59;;;1.50;100.00
35435;BME280;21556;55.782;37.528;2023-02-04T09:01:21;99619.75;;;1.48;100.00
35435;BME280;21556;55.782;37.528;2023-02-04T09:03:47;99630.63;;;1.58;100.00
35435;BME280;21556;55.782;37.528;2023-02-04T09:06:13;99633.06;;;1.55;100.00
35435;BME280;21556;55.782;37.528;2023-02-04T09:08:39;99632.19;;;1.89;100.00
35435;BME280;21556;55.782;37.528;2023-02-04T09:11:05;99630.25;;;1.85;100.00
35435;BME280;21556;55.782;37.528;2023-02-04T09:13:31;99628.47;;;1.84;100.00
35435;BME280;21556;55.782;37.528;2023-02-04T09:15:58;99641.59;;;1.71;100.00
35435;BME280;21556;55.782;37.528;2023-02-04T09:18:24;99638.44;;;1.76;100.00
35435;BME280;21556;55.782;37.528;2023-02-04T09:20:51;99638.75;;;1.82;100.00
35435;BME280;21556;55.782;37.528;2023-02-04T09:23:19;99648.47;;;2.04;100.00
35435;BME280;21556;55.782;37.528;2023-02-04T09:25:46;99647.22;;;1.96;100.00
35435;BME280;21556;55.782;37.528;2023-02-04T09:31:42;99651.84;;;2.03;100.00
35435;BME280;21556;55.782;37.528;2023-02-04T09:34:21;99655.34;;;2.04;100.00
35435;BME280;21556;55.782;37.528;2023-02-04T09:36:48;99656.00;;;2.17;100.00
35435;BME280;21556;55.782;37.528;2023-02-04T09:39:14;99658.53;;;2.16;100.00
35435;BME280;21556;55.782;37.528;2023-02-04T09:41:41;99653.94;;;2.28;100.00
35435;BME280;21556;55.782;37.528;2023-02-04T09:44:17;99665.59;;;2.36;100.00
35435;BME280;21556;55.782;37.528;2023-02-04T09:46:50;99661.19;;;2.17;100.00
35435;BME280;21556;55.782;37.528;2023-02-04T09:49:16;99661.50;;;2.24;100.00
35435;BME280;21556;55.782;37.528;2023-02-04T09:51:46;99663.25;;;2.07;100.00
35435;BME280;21556;55.782;37.528;2023-02-04T09:54:16;99668.22;;;2.20;100.00
35435;BME280;21556;55.782;37.528;2023-02-04T09:56:51;99664.19;;;2.25;100.00
35435;BME280;21556;55.782;37.528;2023-02-04T09:59:22;99672.75;;;2.42;100.00
35435;BME280;21556;55.782;37.528;2023-02-04T10:02:04;99672.75;;;2.42;100.00
35435;BME280;21556;55.782;37.528;2023-02-04T10:04:36;99679.41;;;2.37;100.00
35435;BME280;21556;55.782;37.528;2023-02-04T10:07:02;99668.22;;;2.38;100.00
35435;BME280;21556;55.782;37.528;2023-02-04T10:09:28;99671.34;;;2.31;100.00
35435;BME280;21556;55.782;37.528;2023-02-04T10:11:54;99680.81;;;2.30;100.00
35435;BME280;21556;55.782;37.528;2023-02-04T10:14:21;99681.13;;;2.54;100.00
35435;BME280;21556;55.782;37.528;2023-02-04T10:16:59;99670.97;;;2.59;100.00
35435;BME280;21556;55.782;37.528;2023-02-04T10:19:28;99681.34;;;2.41;100.00
35435;BME280;21556;55.782;37.528;2023-02-04T10:21:57;99683.25;;;2.45;100.00
35435;BME280;21556;55.782;37.528;2023-02-04T10:24:25;99688.59;;;2.48;100.00
35435;BME280;21556;55.782;37.528;2023-02-04T10:26:53;99680.00;;;2.49;100.00
35435;BME280;21556;55.782;37.528;2023-02-04T10:29:21;99680.44;;;2.76;100.00
35435;BME280;21556;55.782;37.528;2023-02-04T10:31:51;99683.03;;;2.58;100.00
35435;BME280;21556;55.782;37.528;2023-02-04T10:36:48;99690.84;;;2.78;100.00
35435;BME280;21556;55.782;37.528;2023-02-04T10:39:17;99689.16;;;2.78;100.00
35435;BME280;21556;55.782;37.528;2023-02-04T10:41:47;99693.97;;;2.88;100.00
35435;BME280;21556;55.782;37.528;2023-02-04T10:44:19;99695.72;;;2.89;100.00
35435;BME280;21556;55.782;37.528;2023-02-04T10:47:00;99695.88;;;2.75;100.00
35435;BME280;21556;55.782;37.528;2023-02-04T10:49:27;99704.84;;;2.46;100.00
35435;BME280;21556;55.782;37.528;2023-02-04T10:51:53;99707.91;;;2.55;100.00
35435;BME280;21556;55.782;37.528;2023-02-04T10:54:21;99709.09;;;2.61;100.00
35435;BME280;21556;55.782;37.528;2023-02-04T10:57:17;99716.97;;;2.64;100.00
35435;BME280;21556;55.782;37.528;2023-02-04T10:59:48;99712.16;;;2.72;100.00
35435;BME280;21556;55.782;37.528;2023-02-04T11:05:03;99714.22;;;2.79;100.00
35435;BME280;21556;55.782;37.528;2023-02-04T11:07:31;99710.59;;;2.76;100.00
35435;BME280;21556;55.782;37.528;2023-02-04T11:09:59;99717.13;;;2.68;100.00
35435;BME280;21556;55.782;37.528;2023-02-04T11:12:41;99711.94;;;2.85;100.00
35435;BME280;21556;55.782;37.528;2023-02-04T11:20:47;99724.59;;;2.79;100.00
35435;BME280;21556;55.782;37.528;2023-02-04T11:23:30;99726.97;;;2.93;100.00
35435;BME280;21556;55.782;37.528;2023-02-04T11:26:09;99720.00;;;3.09;100.00
35435;BME280;21556;55.782;37.528;2023-02-04T11:29:07;99734.53;;;2.88;100.00
35435;BME280;21556;55.782;37.528;2023-02-04T11:37:09;99736.09;;;2.84;100.00
35435;BME280;21556;55.782;37.528;2023-02-04T11:42:18;99735.22;;;2.84;100.00
35435;BME280;21556;55.782;37.528;2023-02-04T11:44:49;99737.16;;;3.07;100.00
35435;BME280;21556;55.782;37.528;2023-02-04T11:47:16;99736.50;;;2.76;100.00
35435;BME280;21556;55.782;37.528;2023-02-04T11:49:47;99752.00;;;2.74;100.00
35435;BME280;21556;55.782;37.528;2023-02-04T11:52:17;99751.38;;;2.98;100.00
35435;BME280;21556;55.782;37.528;2023-02-04T11:54:54;99752.47;;;2.83;100.00
35435;BME280;21556;55.782;37.528;2023-02-04T11:57:20;99756.81;;;2.14;100.00
35435;BME280;21556;55.782;37.528;2023-02-04T11:59:46;99758.88;;;2.56;100.00
35435;BME280;21556;55.782;37.528;2023-02-04T12:02:19;99766.50;;;2.71;100.00
35435;BME280;21556;55.782;37.528;2023-02-04T12:05:07;99761.47;;;2.92;100.00
35435;BME280;21556;55.782;37.528;2023-02-04T12:07:33;99769.03;;;2.51;100.00
35435;BME280;21556;55.782;37.528;2023-02-04T12:10:13;99772.16;;;2.80;100.00
35435;BME280;21556;55.782;37.528;2023-02-04T12:12:57;99766.16;;;2.81;100.00
35435;BME280;21556;55.782;37.528;2023-02-04T12:15:32;99775.16;;;2.53;100.00
35435;BME280;21556;55.782;37.528;2023-02-04T12:20:28;99782.91;;;2.53;100.00
35435;BME280;21556;55.782;37.528;2023-02-04T12:22:56;99785.97;;;2.62;100.00
35435;BME280;21556;55.782;37.528;2023-02-04T12:25:22;99785.44;;;2.52;100.00
35435;BME280;21556;55.782;37.528;2023-02-04T12:27:48;99786.81;;;2.61;100.00
35435;BME280;21556;55.782;37.528;2023-02-04T12:30:15;99786.81;;;2.61;100.00
35435;BME280;21556;55.782;37.528;2023-02-04T12:32:43;99797.00;;;2.24;100.00
35435;BME280;21556;55.782;37.528;2023-02-04T12:35:09;99802.66;;;2.33;100.00
35435;BME280;21556;55.782;37.528;2023-02-04T12:37:35;99802.72;;;2.35;100.00
35435;BME280;21556;55.782;37.528;2023-02-04T12:40:01;99798.34;;;2.34;100.00
35435;BME280;21556;55.782;37.528;2023-02-04T12:42:28;99806.78;;;2.30;100.00
35435;BME280;21556;55.782;37.528;2023-02-04T12:44:55;99807.06;;;2.18;100.00
35435;BME280;21556;55.782;37.528;2023-02-04T12:47:21;99812.78;;;2.29;100.00
35435;BME280;21556;55.782;37.528;2023-02-04T12:49:47;99808.69;;;2.68;100.00
35435;BME280;21556;55.782;37.528;2023-02-04T12:52:13;99815.38;;;2.47;100.00
35435;BME280;21556;55.782;37.528;2023-02-04T12:54:38;99817.47;;;2.20;100.00
35435;BME280;21556;55.782;37.528;2023-02-04T12:57:04;99818.72;;;2.44;100.00
35435;BME280;21556;55.782;37.528;2023-02-04T12:59:31;99820.78;;;2.33;100.00
35435;BME280;21556;55.782;37.528;2023-02-04T13:01:57;99830.47;;;2.37;100.00
35435;BME280;21556;55.782;37.528;2023-02-04T13:04:23;99831.97;;;2.16;100.00
35435;BME280;21556;55.782;37.528;2023-02-04T13:06:49;99835.75;;;2.23;100.00
35435;BME280;21556;55.782;37.528;2023-02-04T13:09:15;99836.53;;;2.54;100.00
35435;BME280;21556;55.782;37.528;2023-02-04T13:11:41;99834.28;;;2.44;100.00
35435;BME280;21556;55.782;37.528;2023-02-04T13:14:08;99837.13;;;2.16;100.00
35435;BME280;21556;55.782;37.528;2023-02-04T13:16:33;99843.53;;;2.23;100.00
35435;BME280;21556;55.782;37.528;2023-02-04T13:18:59;99844.72;;;2.13;100.00
35435;BME280;21556;55.782;37.528;2023-02-04T13:21:25;99840.84;;;2.21;100.00